sensor_id;sensor_type;location;lat;lon;timestamp;pressure;altitude;pressure_sealevel;temperature;humidity
46379;BME280;32084;42.254;22.744;2023-04-01T00:00:47;94385.56;;;10.86;62.83
46379;BME280;32084;42.254;22.744;2023-04-01T00:03:13;94387.00;;;10.97;62.81
46379;BME280;32084;42.254;22.744;2023-04-01T00:05:39;94382.38;;;11.06;62.17
46379;BME280;32084;42.254;22.744;2023-04-01T00:08:05;94391.91;;;11.08;61.79
46379;BME280;32084;42.254;22.744;2023-04-01T00:10:31;94387.06;;;11.04;62.17
46379;BME280;32084;42.254;22.744;2023-04-01T00:12:58;94387.34;;;10.94;62.74
46379;BME280;32084;42.254;22.744;2023-04-01T00:15:24;94387.94;;;10.81;61.63
46379;BME280;32084;42.254;22.744;2023-04-01T00:17:50;94391.91;;;10.70;61.46
46379;BME280;32084;42.254;22.744;2023-04-01T00:20:16;94381.56;;;10.67;61.60
46379;BME280;32084;42.254;22.744;2023-04-01T00:22:42;94383.50;;;10.73;61.68
46379;BME280;32084;42.254;22.744;2023-04-01T00:25:09;94381.88;;;10.72;61.16
46379;BME280;32084;42.254;22.744;2023-04-01T00:27:35;94384.78;;;10.63;61.42
46379;BME280;32084;42.254;22.744;2023-04-01T00:30:01;94378.38;;;10.72;61.17
46379;BME280;32084;42.254;22.744;2023-04-01T00:32:27;94368.47;;;10.58;62.03
46379;BME280;32084;42.254;22.744;2023-04-01T00:34:53;94357.47;;;10.52;61.96
46379;BME280;32084;42.254;22.744;2023-04-01T00:37:20;94364.56;;;10.45;62.14
46379;BME280;32084;42.254;22.744;2023-04-01T00:39:46;94357.31;;;10.31;62.59
46379;BME280;32084;42.254;22.744;2023-04-01T00:42:12;94361.97;;;10.06;62.60
46379;BME280;32084;42.254;22.744;2023-04-01T00:44:39;94357.31;;;10.00;62.23
46379;BME280;32084;42.254;22.744;2023-04-01T00:47:05;94355.34;;;10.02;62.06
46379;BME280;32084;42.254;22.744;2023-04-01T00:49:33;94348.25;;;10.09;61.10
46379;BME280;32084;42.254;22.744;2023-04-01T00:52:02;94344.03;;;10.14;61.04
46379;BME280;32084;42.254;22.744;2023-04-01T00:54:29;94345.34;;;10.19;60.82
46379;BME280;32084;42.254;22.744;2023-04-01T00:59:24;94338.28;;;10.03;61.77
46379;BME280;32084;42.254;22.744;2023-04-01T01:01:51;94338.63;;;10.00;61.87
46379;BME280;32084;42.254;22.744;2023-04-01T01:04:27;94332.94;;;9.80;62.42
46379;BME280;32084;42.254;22.744;2023-04-01T01:07:00;94330.50;;;9.70;63.17
46379;BME280;32084;42.254;22.744;2023-04-01T01:12:13;94325.78;;;9.41;63.67
46379;BME280;32084;42.254;22.744;2023-04-01T01:20:22;94327.56;;;9.56;63.41
46379;BME280;32084;42.254;22.744;2023-04-01T01:27:50;94311.63;;;9.09;65.42
46379;BME280;32084;42.254;22.744;2023-04-01T01:30:34;94313.69;;;9.30;64.28
46379;BME280;32084;42.254;22.744;2023-04-01T01:35:30;94313.50;;;9.63;63.56
46379;BME280;32084;42.254;22.744;2023-04-01T01:38:18;94313.38;;;9.56;64.05
46379;BME280;32084;42.254;22.744;2023-04-01T01:40:45;94321.19;;;9.66;64.08
46379;BME280;32084;42.254;22.744;2023-04-01T01:43:14;94315.69;;;9.59;64.88
46379;BME280;32084;42.254;22.744;2023-04-01T01:45:46;94316.25;;;9.46;63.61
46379;BME280;32084;42.254;22.744;2023-04-01T01:48:14;94306.25;;;9.48;64.44
46379;BME280;32084;42.254;22.744;2023-04-01T01:50:41;94310.00;;;9.31;65.28
46379;BME280;32084;42.254;22.744;2023-04-01T01:53:10;94307.38;;;9.23;65.12
46379;BME280;32084;42.254;22.744;2023-04-01T01:55:37;94306.56;;;9.53;64.01
46379;BME280;32084;42.254;22.744;2023-04-01T01:58:06;94297.34;;;9.64;63.63
46379;BME280;32084;42.254;22.744;2023-04-01T02:00:35;94300.22;;;9.54;63.52
46379;BME280;32084;42.254;22.744;2023-04-01T02:03:01;94290.06;;;9.50;63.48
46379;BME280;32084;42.254;22.744;2023-04-01T02:05:29;94293.88;;;9.55;63.44
46379;BME280;32084;42.254;22.744;2023-04-01T02:08:05;94298.50;;;9.62;63.30
46379;BME280;32084;42.254;22.744;2023-04-01T02:10:34;94302.75;;;9.79;62.76
46379;BME280;32084;42.254;22.744;2023-04-01T02:13:01;94290.81;;;9.90;63.18
46379;BME280;32084;42.254;22.744;2023-04-01T02:15:32;94286.34;;;9.82;64.26
46379;BME280;32084;42.254;22.744;2023-04-01T02:17:59;94279.31;;;9.89;63.97
46379;BME280;32084;42.254;22.744;2023-04-01T02:20:25;94286.91;;;9.77;64.81
46379;BME280;32084;42.254;22.744;2023-04-01T02:22:54;94299.69;;;9.82;64.74
46379;BME280;32084;42.254;22.744;2023-04-01T02:25:22;94296.94;;;9.99;65.04
46379;BME280;32084;42.254;22.744;2023-04-01T02:27:49;94300.19;;;10.09;64.90
46379;BME280;32084;42.254;22.744;2023-04-01T02:30:15;94305.53;;;10.09;64.99
46379;BME280;32084;42.254;22.744;2023-04-01T02:32:42;94298.38;;;10.09;65.12
46379;BME280;32084;42.254;22.744;2023-04-01T02:35:09;94304.63;;;9.93;65.48
46379;BME280;32084;42.254;22.744;2023-04-01T02:37:37;94296.06;;;9.75;66.43
46379;BME280;32084;42.254;22.744;2023-04-01T02:40:05;94291.03;;;9.80;65.12
46379;BME280;32084;42.254;22.744;2023-04-01T02:42:32;94289.00;;;9.90;64.40
46379;BME280;32084;42.254;22.744;2023-04-01T02:44:58;94283.56;;;9.99;64.52
46379;BME280;32084;42.254;22.744;2023-04-01T02:47:24;94272.97;;;9.90;64.98
46379;BME280;32084;42.254;22.744;2023-04-01T02:49:50;94263.13;;;9.68;65.06
46379;BME280;32084;42.254;22.744;2023-04-01T02:52:16;94255.59;;;9.71;66.22
46379;BME280;32084;42.254;22.744;2023-04-01T02:54:42;94246.72;;;9.71;66.71
46379;BME280;32084;42.254;22.744;2023-04-01T02:57:08;94251.06;;;9.72;66.68
46379;BME280;32084;42.254;22.744;2023-04-01T02:59:34;94259.31;;;9.85;66.83
46379;BME280;32084;42.254;22.744;2023-04-01T03:02:00;94265.88;;;9.97;66.38
46379;BME280;32084;42.254;22.744;2023-04-01T03:04:26;94262.63;;;9.87;66.99
46379;BME280;32084;42.254;22.744;2023-04-01T03:06:52;94266.78;;;9.90;66.67
46379;BME280;32084;42.254;22.744;2023-04-01T03:09:18;94257.88;;;9.97;66.76
46379;BME280;32084;42.254;22.744;2023-04-01T03:11:44;94251.72;;;9.74;67.03
46379;BME280;32084;42.254;22.744;2023-04-01T03:14:10;94243.06;;;9.72;67.11
46379;BME280;32084;42.254;22.744;2023-04-01T03:16:36;94254.44;;;9.89;65.89
46379;BME280;32084;42.254;22.744;2023-04-01T03:19:02;94261.56;;;9.96;65.64
46379;BME280;32084;42.254;22.744;2023-04-01T03:21:29;94244.34;;;9.99;65.39
46379;BME280;32084;42.254;22.744;2023-04-01T03:23:55;94232.50;;;10.02;65.60
46379;BME280;32084;42.254;22.744;2023-04-01T03:26:21;94234.25;;;9.86;67.12
46379;BME280;32084;42.254;22.744;2023-04-01T03:28:47;94227.28;;;9.62;67.18
46379;BME280;32084;42.254;22.744;2023-04-01T03:31:13;94205.94;;;9.62;66.99
46379;BME280;32084;42.254;22.744;2023-04-01T03:33:40;94202.66;;;9.75;66.06
46379;BME280;32084;42.254;22.744;2023-04-01T03:36:06;94213.63;;;9.80;66.03
46379;BME280;32084;42.254;22.744;2023-04-01T03:38:36;94222.88;;;9.92;66.89
46379;BME280;32084;42.254;22.744;2023-04-01T03:41:02;94218.19;;;9.94;67.03
46379;BME280;32084;42.254;22.744;2023-04-01T03:43:28;94202.59;;;9.83;67.20
46379;BME280;32084;42.254;22.744;2023-04-01T03:45:54;94216.00;;;9.75;66.34
46379;BME280;32084;42.254;22.744;2023-04-01T03:48:20;94225.59;;;9.84;65.48
46379;BME280;32084;42.254;22.744;2023-04-01T03:50:46;94214.34;;;9.74;65.73
46379;BME280;32084;42.254;22.744;2023-04-01T03:53:12;94214.81;;;9.77;65.49
46379;BME280;32084;42.254;22.744;2023-04-01T03:55:38;94206.66;;;9.79;65.57
46379;BME280;32084;42.254;22.744;2023-04-01T03:58:05;94198.81;;;9.77;65.72
46379;BME280;32084;42.254;22.744;2023-04-01T04:00:32;94197.13;;;9.76;66.50
46379;BME280;32084;42.254;22.744;2023-04-01T04:02:59;94193.13;;;9.57;65.91
46379;BME280;32084;42.254;22.744;2023-04-01T04:05:25;94188.84;;;9.48;66.72
46379;BME280;32084;42.254;22.744;2023-04-01T04:07:52;94183.75;;;9.62;67.30
46379;BME280;32084;42.254;22.744;2023-04-01T04:10:18;94180.31;;;9.76;67.58
46379;BME280;32084;42.254;22.744;2023-04-01T04:12:44;94175.59;;;9.78;67.43
46379;BME280;32084;42.254;22.744;2023-04-01T04:15:10;94167.59;;;9.78;67.98
46379;BME280;32084;42.254;22.744;2023-04-01T04:17:37;94164.09;;;9.77;67.37
46379;BME280;32084;42.254;22.744;2023-04-01T04:20:03;94154.59;;;9.60;67.73
46379;BME280;32084;42.254;22.744;2023-04-01T04:22:29;94159.88;;;9.45;67.04
46379;BME280;32084;42.254;22.744;2023-04-01T04:24:55;94150.97;;;9.53;66.89
46379;BME280;32084;42.254;22.744;2023-04-01T04:27:21;94148.59;;;9.35;68.54
46379;BME280;32084;42.254;22.744;2023-04-01T04:29:47;94142.91;;;9.38;68.46
46379;BME280;32084;42.254;22.744;2023-04-01T04:32:13;94132.59;;;9.35;67.39
46379;BME280;32084;42.254;22.744;2023-04-01T04:34:39;94141.19;;;9.45;67.02
46379;BME280;32084;42.254;22.744;2023-04-01T04:37:05;94129.88;;;9.43;67.87
46379;BME280;32084;42.254;22.744;2023-04-01T04:39:31;94138.16;;;9.48;67.85
46379;BME280;32084;42.254;22.744;2023-04-01T04:41:57;94120.84;;;9.44;68.72
46379;BME280;32084;42.254;22.744;2023-04-01T04:44:23;94112.38;;;9.41;68.76
46379;BME280;32084;42.254;22.744;2023-04-01T04:46:49;94111.44;;;9.10;69.30
46379;BME280;32084;42.254;22.744;2023-04-01T04:49:15;94108.72;;;9.18;69.06
46379;BME280;32084;42.254;22.744;2023-04-01T04:51:41;94119.25;;;9.12;69.68
46379;BME280;32084;42.254;22.744;2023-04-01T04:54:07;94130.28;;;9.09;70.15
46379;BME280;32084;42.254;22.744;2023-04-01T04:56:33;94118.25;;;9.13;69.59
46379;BME280;32084;42.254;22.744;2023-04-01T04:59:01;94117.72;;;9.17;69.12
46379;BME280;32084;42.254;22.744;2023-04-01T05:01:27;94120.84;;;9.21;69.02
46379;BME280;32084;42.254;22.744;2023-04-01T05:03:54;94114.53;;;9.22;69.16
46379;BME280;32084;42.254;22.744;2023-04-01T05:06:20;94105.50;;;9.00;69.35
46379;BME280;32084;42.254;22.744;2023-04-01T05:08:46;94101.53;;;8.96;69.06
46379;BME280;32084;42.254;22.744;2023-04-01T05:11:13;94101.47;;;9.04;68.98
46379;BME280;32084;42.254;22.744;2023-04-01T05:13:39;94107.66;;;9.28;68.20
46379;BME280;32084;42.254;22.744;2023-04-01T05:16:09;94113.28;;;9.71;67.28
46379;BME280;32084;42.254;22.744;2023-04-01T05:18:35;94103.66;;;9.85;65.37
46379;BME280;32084;42.254;22.744;2023-04-01T05:21:01;94103.66;;;10.29;64.11
46379;BME280;32084;42.254;22.744;2023-04-01T05:23:27;94107.75;;;10.55;63.44
46379;BME280;32084;42.254;22.744;2023-04-01T05:25:53;94107.03;;;10.83;62.92
46379;BME280;32084;42.254;22.744;2023-04-01T05:28:20;94096.88;;;11.14;62.73
46379;BME280;32084;42.254;22.744;2023-04-01T05:30:46;94090.84;;;11.27;61.15
46379;BME280;32084;42.254;22.744;2023-04-01T05:33:12;94071.31;;;11.55;59.87
46379;BME280;32084;42.254;22.744;2023-04-01T05:35:39;94073.19;;;12.11;59.28
46379;BME280;32084;42.254;22.744;2023-04-01T05:38:05;94084.50;;;12.48;58.03
46379;BME280;32084;42.254;22.744;2023-04-01T05:40:31;94081.50;;;12.58;56.75
46379;BME280;32084;42.254;22.744;2023-04-01T05:42:58;94081.84;;;13.03;55.04
46379;BME280;32084;42.254;22.744;2023-04-01T05:45:24;94084.44;;;13.44;55.83
46379;BME280;32084;42.254;22.744;2023-04-01T05:47:50;94088.78;;;13.59;53.80
46379;BME280;32084;42.254;22.744;2023-04-01T05:50:16;94090.25;;;13.55;53.12
46379;BME280;32084;42.254;22.744;2023-04-01T05:52:42;94074.31;;;13.86;52.22
46379;BME280;32084;42.254;22.744;2023-04-01T05:55:08;94065.31;;;14.59;50.37
46379;BME280;32084;42.254;22.744;2023-04-01T05:57:34;94063.59;;;14.78;49.63
46379;BME280;32084;42.254;22.744;2023-04-01T06:00:00;94057.00;;;14.68;50.52
46379;BME280;32084;42.254;22.744;2023-04-01T06:02:27;94065.94;;;14.48;50.52
46379;BME280;32084;42.254;22.744;2023-04-01T06:04:54;94062.13;;;14.04;51.62
46379;BME280;32084;42.254;22.744;2023-04-01T06:07:27;94058.63;;;13.70;51.98
46379;BME280;32084;42.254;22.744;2023-04-01T06:09:53;94054.47;;;13.54;53.66
46379;BME280;32084;42.254;22.744;2023-04-01T06:20:20;94034.59;;;13.02;58.00
46379;BME280;32084;42.254;22.744;2023-04-01T06:28:06;94027.09;;;12.77;58.39
46379;BME280;32084;42.254;22.744;2023-04-01T06:30:43;94045.06;;;12.77;58.15
46379;BME280;32084;42.254;22.744;2023-04-01T06:33:55;94041.28;;;12.64;58.09
46379;BME280;32084;42.254;22.744;2023-04-01T06:41:08;94037.34;;;12.67;59.72
46379;BME280;32084;42.254;22.744;2023-04-01T06:51:13;94037.81;;;12.84;57.01
46379;BME280;32084;42.254;22.744;2023-04-01T06:53:48;94031.84;;;12.82;57.76
46379;BME280;32084;42.254;22.744;2023-04-01T06:56:19;94033.13;;;12.93;57.19
46379;BME280;32084;42.254;22.744;2023-04-01T06:58:50;94035.81;;;13.06;56.37
46379;BME280;32084;42.254;22.744;2023-04-01T07:01:27;94031.91;;;13.02;54.43
46379;BME280;32084;42.254;22.744;2023-04-01T07:03:55;94034.78;;;13.07;55.11
46379;BME280;32084;42.254;22.744;2023-04-01T07:08:51;94035.03;;;13.19;54.65
46379;BME280;32084;42.254;22.744;2023-04-01T07:11:32;94036.25;;;13.23;53.26
46379;BME280;32084;42.254;22.744;2023-04-01T07:16:30;94019.81;;;13.53;52.67
46379;BME280;32084;42.254;22.744;2023-04-01T07:19:02;94012.97;;;13.57;52.76
46379;BME280;32084;42.254;22.744;2023-04-01T07:21:32;94013.81;;;13.77;52.36
46379;BME280;32084;42.254;22.744;2023-04-01T07:24:04;94013.13;;;14.02;52.12
46379;BME280;32084;42.254;22.744;2023-04-01T07:26:30;94010.38;;;14.22;51.51
46379;BME280;32084;42.254;22.744;2023-04-01T07:28:57;94011.13;;;14.94;51.37
46379;BME280;32084;42.254;22.744;2023-04-01T07:31:31;94003.66;;;15.03;50.24
46379;BME280;32084;42.254;22.744;2023-04-01T07:34:09;93999.66;;;15.12;50.14
46379;BME280;32084;42.254;22.744;2023-04-01T07:39:26;93972.94;;;15.11;50.02
46379;BME280;32084;42.254;22.744;2023-04-01T07:44:44;93984.78;;;15.60;44.98
46379;BME280;32084;42.254;22.744;2023-04-01T07:47:17;93975.97;;;15.96;44.94
46379;BME280;32084;42.254;22.744;2023-04-01T08:08:08;93884.53;;;15.58;50.89
46379;BME280;32084;42.254;22.744;2023-04-01T08:20:28;93855.25;;;19.56;44.22
46379;BME280;32084;42.254;22.744;2023-04-01T08:22:58;93882.38;;;20.34;37.67
46379;BME280;32084;42.254;22.744;2023-04-01T08:25:25;93884.72;;;21.56;34.79
46379;BME280;32084;42.254;22.744;2023-04-01T08:28:16;93885.16;;;22.18;32.83
46379;BME280;32084;42.254;22.744;2023-04-01T08:30:42;93894.09;;;22.66;31.74
46379;BME280;32084;42.254;22.744;2023-04-01T08:38:11;93877.28;;;21.14;31.60
46379;BME280;32084;42.254;22.744;2023-04-01T08:53:50;93855.00;;;23.49;29.47
46379;BME280;32084;42.254;22.744;2023-04-01T08:56:23;93841.31;;;23.75;29.35
46379;BME280;32084;42.254;22.744;2023-04-01T08:58:54;93852.53;;;23.48;28.42
46379;BME280;32084;42.254;22.744;2023-04-01T09:03:56;93844.06;;;23.08;29.10
46379;BME280;32084;42.254;22.744;2023-04-01T09:06:35;93834.69;;;22.00;29.89
46379;BME280;32084;42.254;22.744;2023-04-01T09:11:59;93838.91;;;20.56;31.31
46379;BME280;32084;42.254;22.744;2023-04-01T09:24:28;93818.84;;;20.57;32.18
46379;BME280;32084;42.254;22.744;2023-04-01T09:50:50;93781.47;;;19.93;33.07
46379;BME280;32084;42.254;22.744;2023-04-01T09:55:52;93767.84;;;20.32;32.53
46379;BME280;32084;42.254;22.744;2023-04-01T09:58:32;93776.63;;;20.44;32.50
46379;BME280;32084;42.254;22.744;2023-04-01T10:03:36;93767.50;;;20.56;32.34
46379;BME280;32084;42.254;22.744;2023-04-01T10:06:27;93768.38;;;20.34;32.26
46379;BME280;32084;42.254;22.744;2023-04-01T10:17:19;93756.59;;;20.23;32.93
46379;BME280;32084;42.254;22.744;2023-04-01T10:27:59;93753.22;;;20.11;33.13
46379;BME280;32084;42.254;22.744;2023-04-01T10:30:39;93746.06;;;20.05;32.76
46379;BME280;32084;42.254;22.744;2023-04-01T10:51:17;93719.72;;;21.67;31.00
46379;BME280;32084;42.254;22.744;2023-04-01T10:56:33;93745.56;;;20.90;31.66
46379;BME280;32084;42.254;22.744;2023-04-01T11:22:40;93890.69;;;14.51;63.83
46379;BME280;32084;42.254;22.744;2023-04-01T11:25:19;93915.34;;;14.03;71.94
46379;BME280;32084;42.254;22.744;2023-04-01T11:37:57;93908.91;;;14.56;76.94
46379;BME280;32084;42.254;22.744;2023-04-01T11:41:13;93897.97;;;14.57;76.65
46379;BME280;32084;42.254;22.744;2023-04-01T11:46:01;93893.09;;;14.73;78.93
46379;BME280;32084;42.254;22.744;2023-04-01T11:51:21;93893.69;;;14.75;72.44
46379;BME280;32084;42.254;22.744;2023-04-01T11:56:35;93858.94;;;14.73;76.41
46379;BME280;32084;42.254;22.744;2023-04-01T11:59:14;93849.66;;;14.69;77.12
46379;BME280;32084;42.254;22.744;2023-04-01T12:01:58;93852.03;;;15.09;76.66
46379;BME280;32084;42.254;22.744;2023-04-01T12:14:48;93900.44;;;15.85;74.25
46379;BME280;32084;42.254;22.744;2023-04-01T12:20:33;93913.50;;;15.37;74.08
46379;BME280;32084;42.254;22.744;2023-04-01T12:25:17;93882.09;;;15.31;74.13
46379;BME280;32084;42.254;22.744;2023-04-01T12:28:29;93890.56;;;15.53;73.77
46379;BME280;32084;42.254;22.744;2023-04-01T12:36:33;93888.31;;;15.75;72.28
46379;BME280;32084;42.254;22.744;2023-04-01T12:41:30;93901.34;;;15.78;72.42
46379;BME280;32084;42.254;22.744;2023-04-01T13:04:39;93847.19;;;15.98;67.30
46379;BME280;32084;42.254;22.744;2023-04-01T13:07:44;93840.47;;;15.89;67.90
46379;BME280;32084;42.254;22.744;2023-04-01T13:10:13;93837.09;;;15.94;67.12
46379;BME280;32084;42.254;22.744;2023-04-01T13:17:40;93840.72;;;16.18;65.03
46379;BME280;32084;42.254;22.744;2023-04-01T13:25:07;93852.25;;;16.25;66.31
46379;BME280;32084;42.254;22.744;2023-04-01T13:27:44;93844.44;;;16.05;67.86
46379;BME280;32084;42.254;22.744;2023-04-01T13:30:18;93858.56;;;16.00;64.54
46379;BME280;32084;42.254;22.744;2023-04-01T13:35:21;93857.53;;;15.83;64.43
46379;BME280;32084;42.254;22.744;2023-04-01T13:48:29;93899.22;;;15.12;73.27
46379;BME280;32084;42.254;22.744;2023-04-01T14:04:53;93879.91;;;13.67;66.62
46379;BME280;32084;42.254;22.744;2023-04-01T14:08:24;93865.28;;;13.57;66.67
46379;BME280;32084;42.254;22.744;2023-04-01T14:10:31;93820.47;;;13.51;67.16
46379;BME280;32084;42.254;22.744;2023-04-01T14:28:29;93801.81;;;15.40;62.22
46379;BME280;32084;42.254;22.744;2023-04-01T14:31:04;93799.13;;;15.58;62.19
46379;BME280;32084;42.254;22.744;2023-04-01T14:51:44;93737.50;;;15.50;57.24
46379;BME280;32084;42.254;22.744;2023-04-01T14:59:10;93788.81;;;15.92;57.91
46379;BME280;32084;42.254;22.744;2023-04-01T15:24:46;93771.81;;;16.64;49.81
46379;BME280;32084;42.254;22.744;2023-04-01T15:29:52;93821.78;;;16.67;58.71
46379;BME280;32084;42.254;22.744;2023-04-01T15:43:05;93821.53;;;16.56;48.34
46379;BME280;32084;42.254;22.744;2023-04-01T15:55:30;93866.47;;;16.32;50.85
46379;BME280;32084;42.254;22.744;2023-04-01T16:06:01;93882.56;;;14.96;57.82
46379;BME280;32084;42.254;22.744;2023-04-01T16:14:09;93920.94;;;14.85;59.32
46379;BME280;32084;42.254;22.744;2023-04-01T16:17:12;93922.13;;;14.96;58.36
46379;BME280;32084;42.254;22.744;2023-04-01T16:27:42;93942.53;;;14.78;57.62
46379;BME280;32084;42.254;22.744;2023-04-01T16:32:57;93967.22;;;14.69;56.67
46379;BME280;32084;42.254;22.744;2023-04-01T16:35:31;93981.56;;;14.42;56.58
46379;BME280;32084;42.254;22.744;2023-04-01T16:38:05;93989.28;;;14.19;57.57
46379;BME280;32084;42.254;22.744;2023-04-01T16:40:47;93976.75;;;14.06;57.51
46379;BME280;32084;42.254;22.744;2023-04-01T16:46:13;93992.28;;;13.84;57.52
46379;BME280;32084;42.254;22.744;2023-04-01T16:51:16;94006.16;;;13.74;57.78
46379;BME280;32084;42.254;22.744;2023-04-01T16:53:45;94013.56;;;13.79;57.86
46379;BME280;32084;42.254;22.744;2023-04-01T16:56:16;94016.69;;;13.69;58.19
46379;BME280;32084;42.254;22.744;2023-04-01T17:01:27;94028.88;;;13.65;59.32
46379;BME280;32084;42.254;22.744;2023-04-01T17:03:58;94031.97;;;13.55;59.14
46379;BME280;32084;42.254;22.744;2023-04-01T17:06:42;94054.47;;;13.41;59.42
46379;BME280;32084;42.254;22.744;2023-04-01T17:29:28;94111.34;;;12.96;61.22
46379;BME280;32084;42.254;22.744;2023-04-01T17:34:46;94129.50;;;13.01;61.31
46379;BME280;32084;42.254;22.744;2023-04-01T17:37:25;94119.28;;;12.76;61.81
46379;BME280;32084;42.254;22.744;2023-04-01T17:45:17;94139.78;;;12.49;62.99
46379;BME280;32084;42.254;22.744;2023-04-01T17:55:49;94185.81;;;12.24;62.73
46379;BME280;32084;42.254;22.744;2023-04-01T17:58:21;94191.88;;;12.05;64.59
46379;BME280;32084;42.254;22.744;2023-04-01T18:06:21;94179.00;;;11.94;66.55
46379;BME280;32084;42.254;22.744;2023-04-01T18:11:58;94194.91;;;11.80;67.80
46379;BME280;32084;42.254;22.744;2023-04-01T18:24:45;94195.28;;;11.56;68.23
46379;BME280;32084;42.254;22.744;2023-04-01T18:27:24;94201.28;;;11.58;67.40
46379;BME280;32084;42.254;22.744;2023-04-01T18:32:48;94198.31;;;11.31;68.39
46379;BME280;32084;42.254;22.744;2023-04-01T18:40:13;94214.16;;;10.96;70.27
46379;BME280;32084;42.254;22.744;2023-04-01T18:50:55;94248.25;;;10.34;73.99
46379;BME280;32084;42.254;22.744;2023-04-01T18:53:30;94239.78;;;10.46;73.55
46379;BME280;32084;42.254;22.744;2023-04-01T18:56:06;94252.31;;;10.45;73.40
46379;BME280;32084;42.254;22.744;2023-04-01T18:58:34;94246.63;;;10.25;74.10
46379;BME280;32084;42.254;22.744;2023-04-01T19:01:06;94246.84;;;10.01;75.22
46379;BME280;32084;42.254;22.744;2023-04-01T19:08:56;94263.38;;;9.50;74.55
46379;BME280;32084;42.254;22.744;2023-04-01T19:11:35;94275.63;;;9.36;75.64
46379;BME280;32084;42.254;22.744;2023-04-01T19:14:52;94280.50;;;9.64;73.84
46379;BME280;32084;42.254;22.744;2023-04-01T19:23:11;94281.41;;;9.79;73.96
46379;BME280;32084;42.254;22.744;2023-04-01T19:25:46;94284.72;;;9.81;74.26
46379;BME280;32084;42.254;22.744;2023-04-01T19:27:55;94289.06;;;9.51;74.93
46379;BME280;32084;42.254;22.744;2023-04-01T19:30:41;94281.16;;;9.34;76.00
46379;BME280;32084;42.254;22.744;2023-04-01T19:33:20;94282.03;;;9.58;76.22
46379;BME280;32084;42.254;22.744;2023-04-01T19:38:28;94295.09;;;9.76;74.36
46379;BME280;32084;42.254;22.744;2023-04-01T19:41:11;94299.44;;;10.00;73.66
46379;BME280;32084;42.254;22.744;2023-04-01T19:43:50;94301.53;;;10.28;70.81
46379;BME280;32084;42.254;22.744;2023-04-01T19:56:52;94315.19;;;10.56;67.81
46379;BME280;32084;42.254;22.744;2023-04-01T20:05:29;94320.63;;;10.63;66.85
46379;BME280;32084;42.254;22.744;2023-04-01T20:07:27;94316.59;;;10.67;65.99
46379;BME280;32084;42.254;22.744;2023-04-01T20:10:08;94309.63;;;10.43;67.36
46379;BME280;32084;42.254;22.744;2023-04-01T20:15:22;94327.53;;;10.57;66.31
46379;BME280;32084;42.254;22.744;2023-04-01T20:17:53;94323.13;;;10.64;65.82
46379;BME280;32084;42.254;22.744;2023-04-01T20:20:22;94327.16;;;10.60;65.66
46379;BME280;32084;42.254;22.744;2023-04-01T20:23:05;94324.22;;;10.55;66.15
46379;BME280;32084;42.254;22.744;2023-04-01T20:25:43;94330.88;;;10.59;65.12
46379;BME280;32084;42.254;22.744;2023-04-01T20:33:20;94325.47;;;10.44;65.78
46379;BME280;32084;42.254;22.744;2023-04-01T20:36:00;94330.00;;;10.44;65.75
46379;BME280;32084;42.254;22.744;2023-04-01T20:41:12;94327.41;;;10.27;66.13
46379;BME280;32084;42.254;22.744;2023-04-01T20:46:42;94338.84;;;10.21;66.83
46379;BME280;32084;42.254;22.744;2023-04-01T20:55:14;94321.72;;;9.84;68.54
46379;BME280;32084;42.254;22.744;2023-04-01T21:21:13;94338.16;;;7.71;74.84
46379;BME280;32084;42.254;22.744;2023-04-01T21:23:52;94347.47;;;7.67;75.00
46379;BME280;32084;42.254;22.744;2023-04-01T21:34:55;94364.56;;;7.64;74.78
46379;BME280;32084;42.254;22.744;2023-04-01T21:40:11;94360.38;;;7.45;76.78
46379;BME280;32084;42.254;22.744;2023-04-01T21:42:47;94368.31;;;7.37;77.84
46379;BME280;32084;42.254;22.744;2023-04-01T21:45:27;94367.22;;;7.48;77.29
46379;BME280;32084;42.254;22.744;2023-04-01T21:50:48;94352.13;;;7.73;76.30
46379;BME280;32084;42.254;22.744;2023-04-01T21:53:40;94362.06;;;7.62;75.91
46379;BME280;32084;42.254;22.744;2023-04-01T22:06:45;94350.81;;;7.18;77.03
46379;BME280;32084;42.254;22.744;2023-04-01T22:09:30;94355.31;;;7.26;76.25
46379;BME280;32084;42.254;22.744;2023-04-01T22:19:46;94352.78;;;7.16;75.80
46379;BME280;32084;42.254;22.744;2023-04-01T22:32:45;94376.81;;;6.72;79.14
46379;BME280;32084;42.254;22.744;2023-04-01T22:37:57;94380.97;;;6.74;77.15
46379;BME280;32084;42.254;22.744;2023-04-01T22:40:32;94383.09;;;6.44;77.43
46379;BME280;32084;42.254;22.744;2023-04-01T22:43:01;94381.28;;;6.27;78.29
46379;BME280;32084;42.254;22.744;2023-04-01T22:55:38;94401.22;;;6.31;79.51
46379;BME280;32084;42.254;22.744;2023-04-01T22:58:10;94399.69;;;6.47;79.34
46379;BME280;32084;42.254;22.744;2023-04-01T23:00:42;94398.47;;;6.59;78.41
46379;BME280;32084;42.254;22.744;2023-04-01T23:03:17;94401.31;;;6.65;78.50
46379;BME280;32084;42.254;22.744;2023-04-01T23:05:52;94394.84;;;6.42;77.72
46379;BME280;32084;42.254;22.744;2023-04-01T23:10:57;94394.22;;;5.76;78.55
46379;BME280;32084;42.254;22.744;2023-04-01T23:13:26;94389.94;;;5.75;79.34
46379;BME280;32084;42.254;22.744;2023-04-01T23:15:54;94400.06;;;5.80;79.88
46379;BME280;32084;42.254;22.744;2023-04-01T23:18:25;94395.56;;;5.90;80.15
46379;BME280;32084;42.254;22.744;2023-04-01T23:28:19;94418.34;;;5.00;81.92
46379;BME280;32084;42.254;22.744;2023-04-01T23:30:50;94418.19;;;5.11;83.62
46379;BME280;32084;42.254;22.744;2023-04-01T23:35:59;94416.53;;;5.56;80.32
46379;BME280;32084;42.254;22.744;2023-04-01T23:38:34;94415.97;;;5.80;81.64
46379;BME280;32084;42.254;22.744;2023-04-01T23:41:02;94413.59;;;5.86;80.16
46379;BME280;32084;42.254;22.744;2023-04-01T23:43:33;94406.91;;;5.82;78.36
46379;BME280;32084;42.254;22.744;2023-04-01T23:46:02;94404.50;;;5.61;78.05
46379;BME280;32084;42.254;22.744;2023-04-01T23:48:35;94398.16;;;5.26;78.15